Time;durP1;ratioP1;P1;durP2;ratioP2;P2;SDS_P1;SDS_P2;PMS_P1;PMS_P2;Temp;Humidity;BMP_temperature;BMP_pressure;BME280_temperature;BME280_humidity;BME280_pressure;Samples;Min_cycle;Max_cycle;Signal;HPM_P1;HPM_P2
2022/10/18 00:01:48;;;;;;;;;;;;;;;9.03;100.00;101843.97;5537522;32;32993;-66
2022/10/18 00:04:54;;;;;;;;;;;;;;;8.99;100.00;101848.69;5551577;32;34367;-66
2022/10/18 00:08:01;;;;;;;;;;;;;;;8.95;100.00;101846.41;5551703;32;34336;-66
2022/10/18 00:11:09;;;;;;;;;;;;;;;8.93;100.00;101843.87;5551853;32;34879;-66
2022/10/18 00:14:20;;;;;;;;;;;;;;;8.91;100.00;101840.50;5519270;32;33900;-66
2022/10/18 00:17:28;;;;;;;;;;;;;;;8.88;100.00;101843.41;5532224;32;34655;-66
2022/10/18 00:20:38;;;;;;;;;;;;;;;8.88;100.00;101842.53;5532149;32;34427;-66
2022/10/18 00:23:47;;;;;;;;;;;;;;;8.86;100.00;101832.06;5531807;32;34587;-66
2022/10/18 00:26:52;;;;;;;;;;;;;;;8.84;100.00;101839.31;5531997;32;34351;-66
2022/10/18 00:29:58;;;;;;;;;;;;;;;8.84;100.00;101830.53;5531974;32;34140;-66
2022/10/18 00:33:07;;;;;;;;;;;;;;;8.82;100.00;101832.44;5532077;32;34964;-66
2022/10/18 00:36:13;;;;;;;;;;;;;;;8.77;100.00;101824.03;5532145;32;34315;-66
2022/10/18 00:39:20;;;;;;;;;;;;;;;8.77;100.00;101826.66;5532053;32;34892;-66
2022/10/18 00:42:30;;;;;;;;;;;;;;;8.74;100.00;101830.41;5531829;32;35060;-66
2022/10/18 00:45:38;;;;;;;;;;;;;;;8.71;100.00;101828.81;5531910;32;34406;-66
2022/10/18 00:48:48;;;;;;;;;;;;;;;8.70;100.00;101824.53;5531955;32;34129;-66
2022/10/18 00:52:00;;;;;;;;;;;;;;;8.67;100.00;101827.38;5531962;32;34287;-66
2022/10/18 00:55:08;;;;;;;;;;;;;;;8.66;100.00;101817.78;5531866;32;34812;-66
2022/10/18 00:58:18;;;;;;;;;;;;;;;8.65;100.00;101820.56;5531910;32;34538;-66
2022/10/18 01:01:27;;;;;;;;;;;;;;;8.65;100.00;101812.63;5531793;32;34845;-65
2022/10/18 01:04:34;;;;;;;;;;;;;;;8.63;100.00;101817.16;5531878;32;34269;-66
2022/10/18 01:08:08;;;;;;;;;;;;;;;8.60;100.00;101812.97;5531647;32;34397;-66
2022/10/18 01:11:25;;;;;;;;;;;;;;;8.63;100.00;101815.38;5531075;32;34153;-66
2022/10/18 01:14:40;;;;;;;;;;;;;;;8.63;100.00;101807.44;5542724;32;34565;-66
2022/10/18 01:17:53;;;;;;;;;;;;;;;8.61;100.00;101801.44;5551025;32;34215;-66
2022/10/18 01:21:13;;;;;;;;;;;;;;;8.58;100.00;101803.47;5551052;32;34227;-65
2022/10/18 01:24:21;;;;;;;;;;;;;;;8.54;100.00;101797.56;5551023;32;34225;-66
2022/10/18 01:27:48;;;;;;;;;;;;;;;8.53;100.00;101793.25;5536759;32;34467;-66
2022/10/18 01:30:54;;;;;;;;;;;;;;;8.47;100.00;101785.78;5550955;32;34953;-66
2022/10/18 01:34:08;;;;;;;;;;;;;;;8.47;100.00;101784.97;5550929;32;34176;-66
2022/10/18 01:37:15;;;;;;;;;;;;;;;8.47;100.00;101787.62;5550766;32;34941;-66
2022/10/18 01:40:21;;;;;;;;;;;;;;;8.47;100.00;101785.78;5550776;32;34291;-66
2022/10/18 01:43:29;;;;;;;;;;;;;;;8.44;100.00;101780.75;5550701;32;34251;-66
2022/10/18 01:46:38;;;;;;;;;;;;;;;8.45;100.00;101784.22;5550529;32;34867;-66
2022/10/18 01:49:45;;;;;;;;;;;;;;;8.44;100.00;101769.31;5551083;32;34899;-66
2022/10/18 01:52:50;;;;;;;;;;;;;;;8.44;100.00;101766.69;5537423;32;34548;-67
2022/10/18 01:56:07;;;;;;;;;;;;;;;8.41;100.00;101764.28;5537691;32;34910;-66
2022/10/18 01:59:28;;;;;;;;;;;;;;;8.38;100.00;101759.22;5550613;32;34939;-66
2022/10/18 02:02:35;;;;;;;;;;;;;;;8.35;100.00;101760.31;5550496;32;34313;-66
2022/10/18 02:05:45;;;;;;;;;;;;;;;8.36;100.00;101759.34;5536381;32;35628;-66
2022/10/18 02:09:03;;;;;;;;;;;;;;;8.37;100.00;101763.69;5550469;32;34866;-66
2022/10/18 02:12:14;;;;;;;;;;;;;;;8.34;100.00;101755.13;5536542;32;32984;-66
2022/10/18 02:15:24;;;;;;;;;;;;;;;8.32;100.00;101747.34;5550252;32;34362;-67
2022/10/18 02:18:37;;;;;;;;;;;;;;;8.36;100.00;101758.50;5549674;32;35128;-67
2022/10/18 02:21:46;;;;;;;;;;;;;;;8.33;100.00;101753.47;5550357;32;34402;-66
2022/10/18 02:24:54;;;;;;;;;;;;;;;8.36;100.00;101758.50;5536596;32;35137;-66
2022/10/18 02:28:01;;;;;;;;;;;;;;;8.48;100.00;101752.25;5536370;32;35422;-67
2022/10/18 02:31:13;;;;;;;;;;;;;;;8.40;100.00;101755.50;5550132;32;34846;-66
2022/10/18 02:34:20;;;;;;;;;;;;;;;8.35;100.00;101762.09;5550029;32;34226;-67
2022/10/18 02:37:29;;;;;;;;;;;;;;;8.40;100.00;101763.44;5549952;32;34816;-66
2022/10/18 02:40:37;;;;;;;;;;;;;;;8.36;100.00;101754.06;5549953;32;34691;-66
2022/10/18 02:43:48;;;;;;;;;;;;;;;8.28;100.00;101759.91;5535677;32;34505;-67
2022/10/18 02:46:54;;;;;;;;;;;;;;;8.21;100.00;101763.16;5549973;32;34161;-67
2022/10/18 02:50:03;;;;;;;;;;;;;;;8.20;100.00;101764.09;5536831;32;34597;-67
2022/10/18 02:53:10;;;;;;;;;;;;;;;8.12;100.00;101756.78;5535768;32;34536;-68
2022/10/18 02:56:18;;;;;;;;;;;;;;;8.08;100.00;101759.78;5549753;32;34421;-67
2022/10/18 02:59:24;;;;;;;;;;;;;;;8.04;100.00;101751.22;5549752;32;34308;-68
2022/10/18 03:02:31;;;;;;;;;;;;;;;8.00;100.00;101757.72;5535914;32;35639;-68
2022/10/18 03:05:38;;;;;;;;;;;;;;;8.00;100.00;101760.34;5549480;32;34213;-68
2022/10/18 03:08:45;;;;;;;;;;;;;;;7.95;100.00;101761.66;5549480;32;34408;-68
2022/10/18 03:11:50;;;;;;;;;;;;;;;7.94;100.00;101762.66;5535485;32;34479;-68
2022/10/18 03:14:59;;;;;;;;;;;;;;;7.92;100.00;101773.31;5549267;32;34644;-68
2022/10/18 03:18:05;;;;;;;;;;;;;;;7.86;100.00;101771.97;5549295;32;34416;-68
2022/10/18 03:21:11;;;;;;;;;;;;;;;7.87;100.00;101778.12;5549183;32;34426;-68
2022/10/18 03:24:18;;;;;;;;;;;;;;;7.83;100.00;101780.16;5549695;32;34101;-68
2022/10/18 03:27:26;;;;;;;;;;;;;;;7.84;100.00;101776.53;5535848;32;34291;-68
2022/10/18 03:30:32;;;;;;;;;;;;;;;7.97;100.00;101775.63;5549935;32;34353;-68
2022/10/18 03:33:41;;;;;;;;;;;;;;;7.88;100.00;101777.16;5551908;32;34599;-68
2022/10/18 03:36:50;;;;;;;;;;;;;;;7.83;100.00;101781.94;5552248;32;34330;-68
2022/10/18 03:39:59;;;;;;;;;;;;;;;7.76;100.00;101778.06;5551903;32;34947;-67
2022/10/18 03:43:05;;;;;;;;;;;;;;;7.68;100.00;101773.38;5537654;32;34822;-67
2022/10/18 03:46:12;;;;;;;;;;;;;;;7.64;100.00;101773.72;5551891;32;34341;-67
2022/10/18 03:49:20;;;;;;;;;;;;;;;7.63;100.00;101769.41;5551787;32;34574;-67
2022/10/18 03:52:29;;;;;;;;;;;;;;;7.59;100.00;101770.59;5551649;32;34608;-67
2022/10/18 03:55:36;;;;;;;;;;;;;;;7.54;100.00;101780.66;5551752;32;34828;-67
2022/10/18 03:58:44;;;;;;;;;;;;;;;7.50;100.00;101781.84;5551765;32;34924;-67
2022/10/18 04:01:50;;;;;;;;;;;;;;;7.43;100.00;101782.28;5551685;32;34911;-68
2022/10/18 04:04:59;;;;;;;;;;;;;;;7.38;100.00;101778.28;5537612;32;34502;-68
2022/10/18 04:08:05;;;;;;;;;;;;;;;7.35;100.00;101774.09;5551394;32;34700;-68
2022/10/18 04:11:12;;;;;;;;;;;;;;;7.31;100.00;101764.69;5551543;32;34280;-68
2022/10/18 04:14:20;;;;;;;;;;;;;;;7.29;100.00;101778.97;5525169;32;33899;-68
2022/10/18 04:17:27;;;;;;;;;;;;;;;7.24;100.00;101771.41;5551534;32;34289;-68
2022/10/18 04:20:33;;;;;;;;;;;;;;;7.22;100.00;101764.53;5537712;32;35128;-68
2022/10/18 04:23:40;;;;;;;;;;;;;;;7.19;100.00;101768.25;5551444;32;34269;-68
2022/10/18 04:26:49;;;;;;;;;;;;;;;7.16;100.00;101767.62;5537401;32;34665;-67
2022/10/18 04:29:58;;;;;;;;;;;;;;;7.15;100.00;101756.22;5551269;32;34972;-68
2022/10/18 04:33:03;;;;;;;;;;;;;;;7.13;100.00;101760.78;5537485;32;35525;-68
2022/10/18 04:36:10;;;;;;;;;;;;;;;7.11;100.00;101756.56;5551422;32;34704;-67
2022/10/18 04:39:18;;;;;;;;;;;;;;;7.09;100.00;101758.47;5537362;32;34207;-68
2022/10/18 04:42:22;;;;;;;;;;;;;;;7.06;100.00;101756.91;5551017;32;34386;-68
2022/10/18 04:45:29;;;;;;;;;;;;;;;7.06;100.00;101756.06;5551280;32;34639;-68
2022/10/18 04:48:36;;;;;;;;;;;;;;;7.02;100.00;101759.88;5537692;32;34278;-67
2022/10/18 04:51:42;;;;;;;;;;;;;;;6.97;100.00;101745.19;5551149;32;34526;-68
2022/10/18 04:54:48;;;;;;;;;;;;;;;7.01;100.00;101743.22;5550959;32;34468;-67
2022/10/18 04:57:53;;;;;;;;;;;;;;;7.03;100.00;101740.44;5537046;32;33499;-68
2022/10/18 05:01:04;;;;;;;;;;;;;;;7.02;100.00;101738.78;5551183;32;34876;-68
2022/10/18 05:04:08;;;;;;;;;;;;;;;7.06;100.00;101746.34;5550893;32;34258;-68
2022/10/18 05:07:14;;;;;;;;;;;;;;;7.05;100.00;101739.38;5550877;32;34293;-67
2022/10/18 05:10:18;;;;;;;;;;;;;;;7.03;100.00;101737.78;5536926;32;32810;-67
2022/10/18 05:13:23;;;;;;;;;;;;;;;7.03;100.00;101749.19;5536871;32;33348;-68
2022/10/18 05:16:27;;;;;;;;;;;;;;;7.04;100.00;101739.50;5537078;32;35131;-69
2022/10/18 05:19:32;;;;;;;;;;;;;;;7.04;100.00;101742.97;5537247;32;34290;-68
2022/10/18 05:22:37;;;;;;;;;;;;;;;7.09;100.00;101745.28;5550412;32;34237;-68
2022/10/18 05:25:43;;;;;;;;;;;;;;;7.14;100.00;101751.91;5536743;32;34595;-68
2022/10/18 05:28:50;;;;;;;;;;;;;;;7.18;100.00;101744.59;5550669;32;34328;-69
2022/10/18 05:31:56;;;;;;;;;;;;;;;7.19;100.00;101748.94;5539330;32;34317;-68
2022/10/18 05:35:00;;;;;;;;;;;;;;;7.18;100.00;101752.50;5550963;32;34230;-68
2022/10/18 05:38:05;;;;;;;;;;;;;;;7.21;100.00;101749.66;5550998;32;34870;-68
2022/10/18 05:41:10;;;;;;;;;;;;;;;7.25;100.00;101751.13;5550931;32;34726;-68
2022/10/18 05:44:14;;;;;;;;;;;;;;;7.31;100.00;101746.22;5550300;32;34259;-69
2022/10/18 05:47:18;;;;;;;;;;;;;;;7.33;100.00;101754.88;5536745;32;34416;-68
2022/10/18 05:50:22;;;;;;;;;;;;;;;7.31;100.00;101748.84;5524002;32;34569;-68
2022/10/18 05:53:27;;;;;;;;;;;;;;;7.33;100.00;101741.69;5549375;32;35027;-68
2022/10/18 05:56:40;;;;;;;;;;;;;;;7.37;100.00;101747.56;5537778;32;34458;-68
2022/10/18 05:59:43;;;;;;;;;;;;;;;7.45;100.00;101747.00;5550180;32;34890;-68
2022/10/18 06:02:47;;;;;;;;;;;;;;;7.56;100.00;101760.22;5536163;32;34175;-69
2022/10/18 06:05:52;;;;;;;;;;;;;;;7.64;100.00;101752.59;5536846;32;34762;-69
2022/10/18 06:08:56;;;;;;;;;;;;;;;7.74;100.00;101758.87;5549991;32;34925;-69
2022/10/18 06:12:02;;;;;;;;;;;;;;;7.82;100.00;101759.97;5536382;32;33097;-69
2022/10/18 06:15:06;;;;;;;;;;;;;;;7.90;100.00;101753.25;5550081;32;34230;-70
2022/10/18 06:18:09;;;;;;;;;;;;;;;8.16;100.00;101750.28;5549905;32;34655;-69
2022/10/18 06:21:13;;;;;;;;;;;;;;;8.52;100.00;101759.81;5549870;32;34830;-69
2022/10/18 06:24:17;;;;;;;;;;;;;;;8.53;100.00;101764.16;5536644;32;35257;-69
2022/10/18 06:27:19;;;;;;;;;;;;;;;8.73;100.00;101771.34;5536393;32;34556;-68
2022/10/18 06:30:24;;;;;;;;;;;;;;;8.77;100.00;101777.25;5550385;32;34934;-69
2022/10/18 06:33:29;;;;;;;;;;;;;;;8.75;100.00;101773.88;5550064;32;34267;-69
2022/10/18 06:36:33;;;;;;;;;;;;;;;9.02;100.00;101778.75;5549724;32;34944;-69
2022/10/18 06:39:36;;;;;;;;;;;;;;;9.30;100.00;101785.31;5535911;32;34352;-69
2022/10/18 06:42:39;;;;;;;;;;;;;;;9.18;100.00;101776.56;5535926;32;34659;-69
2022/10/18 06:45:44;;;;;;;;;;;;;;;9.13;100.00;101773.44;5535889;32;34128;-69
2022/10/18 06:48:48;;;;;;;;;;;;;;;9.10;100.00;101771.06;5549311;32;34965;-69
2022/10/18 06:51:52;;;;;;;;;;;;;;;9.14;100.00;101778.63;5549919;32;34894;-69
2022/10/18 06:54:56;;;;;;;;;;;;;;;9.23;100.00;101778.84;5549483;32;34824;-69
2022/10/18 06:58:00;;;;;;;;;;;;;;;9.39;100.00;101788.03;5549149;32;35047;-69
2022/10/18 07:01:08;;;;;;;;;;;;;;;9.57;100.00;101783.06;5549247;32;34297;-68
2022/10/18 07:04:11;;;;;;;;;;;;;;;9.65;100.00;101782.41;5549801;32;34388;-68
2022/10/18 07:07:15;;;;;;;;;;;;;;;9.79;100.00;101782.09;5551756;32;34925;-68
2022/10/18 07:10:17;;;;;;;;;;;;;;;9.87;100.00;101787.59;5551697;32;34619;-68
2022/10/18 07:13:21;;;;;;;;;;;;;;;9.94;100.00;101783.44;5551710;32;34896;-68
2022/10/18 07:16:40;;;;;;;;;;;;;;;10.03;100.00;101790.63;5537831;32;34910;-68
2022/10/18 07:19:44;;;;;;;;;;;;;;;10.15;100.00;101792.25;5551897;32;34883;-68
2022/10/18 07:22:49;;;;;;;;;;;;;;;10.21;100.00;101775.84;5537746;32;34434;-68
2022/10/18 07:25:54;;;;;;;;;;;;;;;10.33;100.00;101772.13;5538321;32;34884;-69
2022/10/18 07:29:06;;;;;;;;;;;;;;;10.52;100.00;101781.16;5537777;32;34603;-69
2022/10/18 07:32:11;;;;;;;;;;;;;;;10.76;100.00;101774.53;5551899;32;34259;-69
2022/10/18 07:35:14;;;;;;;;;;;;;;;11.23;100.00;101770.28;5553382;32;34912;-68
2022/10/18 07:38:18;;;;;;;;;;;;;;;11.91;100.00;101765.84;5551697;32;34248;-68
2022/10/18 07:41:23;;;;;;;;;;;;;;;13.17;100.00;101760.88;5551103;32;34896;-69
2022/10/18 07:44:27;;;;;;;;;;;;;;;15.61;93.11;101767.41;5537910;32;34249;-69
2022/10/18 07:47:31;;;;;;;;;;;;;;;18.11;76.79;101768.06;5537913;32;34556;-69
2022/10/18 07:50:38;;;;;;;;;;;;;;;20.22;66.92;101765.94;5525396;32;32976;-69
2022/10/18 07:53:41;;;;;;;;;;;;;;;22.25;57.27;101767.53;5551373;32;34270;-69
2022/10/18 07:56:47;;;;;;;;;;;;;;;20.80;54.91;101769.16;5551204;32;34177;-69
2022/10/18 07:59:55;;;;;;;;;;;;;;;22.42;49.79;101770.59;5537694;32;34436;-69
2022/10/18 08:02:58;;;;;;;;;;;;;;;24.23;46.98;101767.28;5551526;32;34194;-70
2022/10/18 08:06:02;;;;;;;;;;;;;;;25.00;42.15;101763.06;5551545;32;34302;-69
2022/10/18 08:09:05;;;;;;;;;;;;;;;24.75;42.78;101752.28;5551143;32;34469;-68
2022/10/18 08:12:09;;;;;;;;;;;;;;;25.37;37.69;101755.63;5537438;32;32845;-69
2022/10/18 08:15:12;;;;;;;;;;;;;;;26.07;38.91;101747.59;5550877;32;34801;-70
2022/10/18 08:18:15;;;;;;;;;;;;;;;26.63;35.11;101746.94;5536924;32;32748;-68
2022/10/18 08:21:20;;;;;;;;;;;;;;;24.43;39.78;101745.37;5524666;32;33307;-69
2022/10/18 08:24:24;;;;;;;;;;;;;;;21.54;45.34;101736.81;5551232;32;34260;-69
2022/10/18 08:27:28;;;;;;;;;;;;;;;19.32;50.13;101735.28;5537166;32;34332;-69
2022/10/18 08:30:34;;;;;;;;;;;;;;;17.88;54.45;101734.25;5550977;32;34378;-69
2022/10/18 08:33:38;;;;;;;;;;;;;;;16.94;59.00;101722.84;5551217;32;34279;-69
2022/10/18 08:36:43;;;;;;;;;;;;;;;16.29;62.68;101708.06;5537743;32;34876;-69
2022/10/18 08:39:47;;;;;;;;;;;;;;;15.61;64.66;101701.34;5550897;32;34346;-68
2022/10/18 08:43:02;;;;;;;;;;;;;;;15.31;66.98;101698.47;5551062;32;34588;-68
2022/10/18 08:46:10;;;;;;;;;;;;;;;15.12;70.07;101699.62;5550129;32;35092;-67
2022/10/18 08:49:27;;;;;;;;;;;;;;;14.97;71.63;101695.94;5536953;32;33070;-67
2022/10/18 08:52:51;;;;;;;;;;;;;;;14.83;72.21;101693.91;5550929;32;34241;-67
2022/10/18 08:56:05;;;;;;;;;;;;;;;14.85;70.61;101686.56;5537440;32;34932;-67
2022/10/18 08:59:09;;;;;;;;;;;;;;;14.75;72.82;101682.22;5550967;32;34955;-67
2022/10/18 09:02:16;;;;;;;;;;;;;;;14.74;73.07;101674.34;5537091;32;34558;-67
2022/10/18 09:05:37;;;;;;;;;;;;;;;14.75;71.57;101673.34;5537284;32;34263;-67
2022/10/18 09:08:52;;;;;;;;;;;;;;;14.70;70.86;101668.50;5550771;32;34783;-67
2022/10/18 09:12:02;;;;;;;;;;;;;;;14.74;72.43;101663.66;5550741;32;34902;-67
2022/10/18 09:15:28;;;;;;;;;;;;;;;14.94;69.28;101669.53;5550636;32;34619;-67
2022/10/18 09:18:49;;;;;;;;;;;;;;;14.91;64.06;101662.69;5550838;32;34966;-68
2022/10/18 09:22:05;;;;;;;;;;;;;;;14.95;63.88;101664.03;5550809;32;34497;-69
2022/10/18 09:25:24;;;;;;;;;;;;;;;14.96;65.29;101656.87;5537062;32;33560;-67
2022/10/18 09:28:29;;;;;;;;;;;;;;;15.36;60.56;101654.19;5549131;32;34293;-67
2022/10/18 09:31:38;;;;;;;;;;;;;;;15.22;63.22;101650.34;5550306;32;34278;-67
2022/10/18 09:34:49;;;;;;;;;;;;;;;15.27;61.05;101649.84;5536644;32;34423;-67
2022/10/18 09:37:56;;;;;;;;;;;;;;;15.36;60.37;101646.16;5550606;32;34904;-67
2022/10/18 09:41:07;;;;;;;;;;;;;;;15.61;58.28;101637.16;5550422;32;34368;-66
2022/10/18 09:44:23;;;;;;;;;;;;;;;15.56;59.53;101638.66;5551165;32;34443;-69
2022/10/18 09:47:27;;;;;;;;;;;;;;;15.67;57.19;101637.47;5550465;32;34835;-67
2022/10/18 09:50:49;;;;;;;;;;;;;;;15.83;56.38;101635.59;5536470;32;35295;-67
2022/10/18 09:54:21;;;;;;;;;;;;;;;15.87;56.90;101628.06;5536725;32;34071;-68
2022/10/18 09:57:27;;;;;;;;;;;;;;;15.95;60.27;101626.19;5536604;32;34238;-70
2022/10/18 10:00:33;;;;;;;;;;;;;;;15.88;59.23;101624.38;5524050;32;32760;-68
2022/10/18 10:03:38;;;;;;;;;;;;;;;16.21;57.13;101622.44;5536639;32;32994;-68
2022/10/18 10:06:48;;;;;;;;;;;;;;;16.31;56.92;101612.34;5550243;32;34664;-68
2022/10/18 10:09:57;;;;;;;;;;;;;;;16.18;57.97;101604.00;5536706;32;34851;-67
2022/10/18 10:13:25;;;;;;;;;;;;;;;16.35;57.15;101601.09;5537230;32;34149;-68
2022/10/18 10:16:29;;;;;;;;;;;;;;;16.49;56.48;101599.50;5536531;32;35347;-67
2022/10/18 10:19:36;;;;;;;;;;;;;;;16.48;54.96;101598.66;5549984;32;34343;-67
2022/10/18 10:22:40;;;;;;;;;;;;;;;16.57;55.45;101588.72;5536575;32;35052;-67
2022/10/18 10:25:49;;;;;;;;;;;;;;;16.89;53.61;101587.72;5536634;32;33406;-68
2022/10/18 10:29:23;;;;;;;;;;;;;;;17.02;54.33;101581.75;5549651;32;34928;-68
2022/10/18 10:32:47;;;;;;;;;;;;;;;16.95;54.21;101577.09;5549786;32;34932;-67
2022/10/18 10:35:57;;;;;;;;;;;;;;;16.98;53.96;101572.37;5536073;32;34310;-68
2022/10/18 10:39:02;;;;;;;;;;;;;;;16.97;52.75;101568.03;5549993;32;34463;-67
2022/10/18 10:42:12;;;;;;;;;;;;;;;17.05;52.72;101566.13;5552014;32;34250;-67
2022/10/18 10:45:14;;;;;;;;;;;;;;;17.32;50.15;101553.97;5552074;32;34893;-67
2022/10/18 10:48:18;;;;;;;;;;;;;;;17.58;48.43;101559.72;5552336;32;35002;-67
2022/10/18 10:51:28;;;;;;;;;;;;;;;17.75;47.33;101550.50;5537966;32;33033;-67
2022/10/18 10:54:35;;;;;;;;;;;;;;;17.87;46.57;101533.91;5538045;32;34615;-67
2022/10/18 10:57:42;;;;;;;;;;;;;;;18.22;47.92;101543.84;5551808;32;34933;-67
2022/10/18 11:00:45;;;;;;;;;;;;;;;21.76;40.66;101543.75;5525776;32;34033;-68
2022/10/18 11:03:50;;;;;;;;;;;;;;;24.71;32.39;101535.84;5538242;32;34169;-68
2022/10/18 11:06:59;;;;;;;;;;;;;;;27.58;27.32;101538.06;5538432;32;34937;-68
2022/10/18 11:10:12;;;;;;;;;;;;;;;26.31;28.53;101537.03;5551572;32;34624;-67
2022/10/18 11:13:40;;;;;;;;;;;;;;;26.41;27.93;101525.50;5551669;32;34439;-68
2022/10/18 11:16:54;;;;;;;;;;;;;;;25.99;29.10;101533.12;5538146;32;34704;-67
2022/10/18 11:20:05;;;;;;;;;;;;;;;28.32;26.46;101519.31;5551674;32;34537;-68
2022/10/18 11:23:16;;;;;;;;;;;;;;;29.38;23.82;101522.13;5537883;32;35794;-69
2022/10/18 11:26:19;;;;;;;;;;;;;;;29.95;24.53;101515.84;5537893;32;34039;-68
2022/10/18 11:29:39;;;;;;;;;;;;;;;33.17;21.45;101504.06;5537721;32;33641;-68
2022/10/18 11:32:49;;;;;;;;;;;;;;;32.98;20.44;101503.97;5551557;32;34209;-69
2022/10/18 11:35:53;;;;;;;;;;;;;;;33.79;20.92;101496.75;5538024;32;35398;-70
2022/10/18 11:39:17;;;;;;;;;;;;;;;36.05;17.41;101496.56;5551915;32;34362;-70
2022/10/18 11:42:25;;;;;;;;;;;;;;;35.97;17.93;101486.22;5538079;32;35056;-68
2022/10/18 11:45:36;;;;;;;;;;;;;;;37.19;16.18;101484.03;5537855;32;34337;-68
2022/10/18 11:48:51;;;;;;;;;;;;;;;35.26;18.29;101473.94;5551504;32;34756;-68
2022/10/18 11:52:04;;;;;;;;;;;;;;;38.56;16.66;101480.66;5550699;32;34202;-68
2022/10/18 11:55:29;;;;;;;;;;;;;;;35.51;17.40;101467.09;5551469;32;34686;-69
2022/10/18 11:58:44;;;;;;;;;;;;;;;35.25;19.00;101450.22;5538316;32;34181;-68
2022/10/18 12:01:50;;;;;;;;;;;;;;;35.12;18.00;101448.28;5537675;32;35030;-68
2022/10/18 12:04:55;;;;;;;;;;;;;;;34.08;18.94;101447.88;5537809;32;34190;-69
2022/10/18 12:08:28;;;;;;;;;;;;;;;31.12;21.94;101431.81;5537739;32;33680;-68
2022/10/18 12:11:39;;;;;;;;;;;;;;;25.52;28.74;101432.66;5551347;32;34199;-68
2022/10/18 12:14:50;;;;;;;;;;;;;;;26.86;29.68;101417.41;5550962;32;34661;-68
2022/10/18 12:17:55;;;;;;;;;;;;;;;26.82;28.94;101416.22;5550872;32;34168;-68
2022/10/18 12:21:01;;;;;;;;;;;;;;;26.76;30.39;101409.91;5551456;32;34990;-68
2022/10/18 12:24:09;;;;;;;;;;;;;;;24.26;33.58;101398.00;5537371;32;34089;-67
2022/10/18 12:27:14;;;;;;;;;;;;;;;22.33;34.81;101393.37;5551445;32;34305;-66
2022/10/18 12:30:26;;;;;;;;;;;;;;;21.81;36.02;101389.13;5551047;32;34276;-67
2022/10/18 12:33:34;;;;;;;;;;;;;;;21.79;38.87;101392.03;5537144;32;33294;-67
2022/10/18 12:36:57;;;;;;;;;;;;;;;21.24;37.78;101386.31;5537346;32;34447;-67
2022/10/18 12:40:09;;;;;;;;;;;;;;;21.24;38.47;101377.38;5536987;32;33630;-67
2022/10/18 12:43:26;;;;;;;;;;;;;;;21.27;39.46;101366.13;5551129;32;34294;-67
2022/10/18 12:46:50;;;;;;;;;;;;;;;20.74;39.54;101374.34;5536864;32;33581;-66
2022/10/18 12:50:03;;;;;;;;;;;;;;;20.68;40.40;101355.47;5551106;32;34261;-68
2022/10/18 12:53:08;;;;;;;;;;;;;;;20.46;40.20;101351.38;5551038;32;34942;-68
2022/10/18 12:56:27;;;;;;;;;;;;;;;20.53;38.62;101347.62;5550913;32;34192;-68
2022/10/18 12:59:30;;;;;;;;;;;;;;;20.50;41.17;101345.34;5537486;32;34840;-68
2022/10/18 13:02:35;;;;;;;;;;;;;;;20.30;42.20;101341.81;5524053;32;34466;-68
2022/10/18 13:05:43;;;;;;;;;;;;;;;20.48;39.84;101335.84;5537126;32;34177;-68
2022/10/18 13:09:17;;;;;;;;;;;;;;;20.69;39.51;101328.31;5537088;32;34391;-68
2022/10/18 13:12:20;;;;;;;;;;;;;;;20.54;44.41;101330.41;5536794;32;33747;-68
2022/10/18 13:15:37;;;;;;;;;;;;;;;20.37;42.61;101319.25;5536940;32;34590;-68
2022/10/18 13:18:48;;;;;;;;;;;;;;;20.30;42.36;101320.25;5537152;32;35024;-68
2022/10/18 13:22:23;;;;;;;;;;;;;;;20.08;43.17;101319.66;5550577;32;35079;-68
2022/10/18 13:25:47;;;;;;;;;;;;;;;20.12;42.34;101314.69;5483041;32;34715;-68
2022/10/18 13:29:01;;;;;;;;;;;;;;;20.09;41.38;101310.50;5536492;32;35092;-67
2022/10/18 13:32:24;;;;;;;;;;;;;;;20.03;43.29;101302.44;5550333;32;34155;-67
2022/10/18 13:35:46;;;;;;;;;;;;;;;19.93;42.88;101305.56;5536283;32;34450;-67
2022/10/18 13:39:00;;;;;;;;;;;;;;;19.84;42.32;101304.94;5550754;32;35013;-68
2022/10/18 13:42:15;;;;;;;;;;;;;;;20.03;40.81;101310.53;5550930;32;34917;-68
2022/10/18 13:45:32;;;;;;;;;;;;;;;20.01;40.17;101312.59;5536322;32;34768;-67
2022/10/18 13:48:36;;;;;;;;;;;;;;;19.86;39.38;101310.94;5550491;32;34917;-67
2022/10/18 13:51:45;;;;;;;;;;;;;;;19.74;41.15;101303.69;5550096;32;34419;-67
2022/10/18 13:54:59;;;;;;;;;;;;;;;19.56;43.30;101314.22;5536606;32;34318;-67
2022/10/18 13:58:23;;;;;;;;;;;;;;;19.23;44.94;101304.13;5550095;32;34636;-67
2022/10/18 14:01:47;;;;;;;;;;;;;;;19.23;39.71;101297.91;5550285;32;34182;-67
2022/10/18 14:05:15;;;;;;;;;;;;;;;19.24;40.64;101299.59;5536767;32;34889;-67
2022/10/18 14:08:27;;;;;;;;;;;;;;;19.07;42.05;101286.47;5549896;32;34259;-67
2022/10/18 14:11:42;;;;;;;;;;;;;;;18.85;43.03;101284.13;5549693;32;34939;-68
2022/10/18 14:15:07;;;;;;;;;;;;;;;18.88;41.56;101287.22;5548745;32;34984;-68
2022/10/18 14:18:14;;;;;;;;;;;;;;;18.74;42.33;101282.81;5535755;32;34457;-67
2022/10/18 14:21:23;;;;;;;;;;;;;;;18.70;43.80;101278.03;5549765;32;34862;-67
2022/10/18 14:24:34;;;;;;;;;;;;;;;18.55;42.78;101275.47;5536903;32;34777;-68
2022/10/18 14:27:40;;;;;;;;;;;;;;;18.41;42.74;101271.03;5549645;32;34695;-68
2022/10/18 14:30:51;;;;;;;;;;;;;;;18.47;42.99;101271.06;5535251;32;35795;-67
2022/10/18 14:33:56;;;;;;;;;;;;;;;18.54;41.88;101266.59;5549656;32;34340;-67
2022/10/18 14:37:02;;;;;;;;;;;;;;;18.48;45.31;101262.00;5548883;32;34222;-67
2022/10/18 14:40:24;;;;;;;;;;;;;;;18.29;44.94;101251.97;5535778;32;34291;-67
2022/10/18 14:43:29;;;;;;;;;;;;;;;18.15;46.10;101255.59;5535702;32;34354;-67
2022/10/18 14:46:40;;;;;;;;;;;;;;;17.96;46.53;101256.25;5535399;32;34187;-67
2022/10/18 14:49:45;;;;;;;;;;;;;;;18.01;44.36;101241.19;5548782;32;34849;-67
2022/10/18 14:52:50;;;;;;;;;;;;;;;17.94;45.97;101243.03;5522400;32;36244;-66
2022/10/18 14:55:57;;;;;;;;;;;;;;;18.08;44.60;101239.41;5534679;32;34622;-67
2022/10/18 14:59:03;;;;;;;;;;;;;;;17.92;46.11;101236.16;5548490;32;34269;-67
2022/10/18 15:02:24;;;;;;;;;;;;;;;17.76;45.62;101224.72;5548811;32;34982;-67
2022/10/18 15:05:30;;;;;;;;;;;;;;;17.67;46.40;101225.84;5534029;32;33288;-67
2022/10/18 15:08:38;;;;;;;;;;;;;;;17.47;47.30;101224.84;5534117;32;36211;-67
2022/10/18 15:11:43;;;;;;;;;;;;;;;17.43;49.85;101223.53;5534664;32;33294;-68
2022/10/18 15:14:48;;;;;;;;;;;;;;;17.28;48.96;101214.75;5534178;32;35193;-68
2022/10/18 15:17:56;;;;;;;;;;;;;;;17.05;50.00;101219.44;5535054;32;34825;-68
2022/10/18 15:21:22;;;;;;;;;;;;;;;16.86;51.07;101213.66;5534690;32;34546;-67
2022/10/18 15:24:37;;;;;;;;;;;;;;;16.76;54.67;101210.44;5548208;32;34906;-68
2022/10/18 15:27:50;;;;;;;;;;;;;;;16.60;53.29;101207.16;5550757;32;34921;-68
2022/10/18 15:31:00;;;;;;;;;;;;;;;16.41;53.32;101205.88;5524909;32;34824;-67
2022/10/18 15:34:10;;;;;;;;;;;;;;;16.28;55.69;101213.69;5524782;32;34374;-67
2022/10/18 15:37:16;;;;;;;;;;;;;;;16.10;55.57;101206.03;5537218;32;35016;-67
2022/10/18 15:40:24;;;;;;;;;;;;;;;15.94;55.33;101206.19;5537332;32;34661;-67
2022/10/18 15:43:29;;;;;;;;;;;;;;;15.79;57.05;101206.16;5550538;32;34656;-67
2022/10/18 15:46:38;;;;;;;;;;;;;;;15.63;57.04;101206.31;5537343;32;34138;-67
2022/10/18 15:49:44;;;;;;;;;;;;;;;15.50;58.14;101203.37;5551208;32;34605;-68
2022/10/18 15:52:50;;;;;;;;;;;;;;;15.38;59.65;101208.34;5537393;32;35252;-67
2022/10/18 15:56:10;;;;;;;;;;;;;;;15.25;60.41;101205.41;5551247;32;34185;-67
2022/10/18 15:59:26;;;;;;;;;;;;;;;15.18;61.14;101201.78;5537450;32;35477;-67
2022/10/18 16:02:32;;;;;;;;;;;;;;;15.03;59.85;101203.56;5551162;32;34321;-67
2022/10/18 16:05:39;;;;;;;;;;;;;;;14.92;61.46;101195.94;5550953;32;34840;-67
2022/10/18 16:08:50;;;;;;;;;;;;;;;14.79;62.68;101197.34;5537449;32;34228;-67
2022/10/18 16:11:57;;;;;;;;;;;;;;;14.70;63.30;101190.41;5551314;32;34205;-67